x

Chesapeake Light, Va (chlv2) Weather Station

11:00pm - Sat 23rd May 2015 All times are EDT. -4 hours from GMT.

  • Wind
    13mph
  • Air Temp 60°f
  • Sea Pressure 1031mb
  • Chesapeake Light, Va
  • Chesapeake Light, Va

More Historic Weather Station data

Upgrade to MSW Pro to gain access to the past 30 days of data for over 8000 Wavebouys and Weather Stations around the globe.

Join Pro

Comparision Forecast

View Surf forecast
   
Sat 05/23 11:00pm 13
mph
1031mb 60f
10:00pm 11 13 mph 1030.9mb 60f
9:00pm 14
mph
1030.2mb 60f
8:00pm 11
mph
1030.4mb 60f
7:00pm 11 13 mph 1030.1mb 60f
6:00pm 9 10 mph 1030.6mb 59f
5:00pm 9 10 mph 1030.9mb 59f
4:00pm 9
mph
1031.1mb 59f
3:00pm 9
mph
1031.6mb 59f
2:00pm 10 11 mph 1031.8mb 59f
1:00pm 13 14 mph 1032.1mb 59f
12:00pm 11 13 mph 1032.2mb 59f
11:00am 17 18 mph 1031.6mb 60f
10:00am 21 22 mph 1031mb 60f
9:00am 24 26 mph 1030.1mb 61f
8:00am 22 26 mph 1029.3mb 62f
7:00am 18 20 mph 1028.9mb 63f
6:00am 17 18 mph 1027.8mb 65f
5:00am 8 9 mph 1026.8mb 63f
4:00am 11
mph
1025.6mb 63f
3:00am 10 11 mph 1024.9mb 64f
2:00am 17 18 mph 1024.7mb 65f
1:00am 15
mph
1024.8mb 65f
12:00am 17
mph
1024.4mb 64f
Fri 05/22 11:00pm 18 20 mph 1024mb 63f
10:00pm 18 20 mph 1023.4mb 63f
9:00pm 16
mph
1023.2mb 63f
8:00pm 16 17 mph 1022.7mb 64f
7:00pm 14
mph
1022mb 64f
6:00pm 7 8 mph 1021.6mb 64f
5:00pm 3
mph
1021.9mb 65f
4:00pm 7
mph
1021.9mb 64f
3:00pm 11
mph
1021.9mb 65f
2:00pm 10 11 mph 1021.5mb 64f
1:00pm 11 13 mph 1021.4mb 63f
12:00pm 15 16 mph 1021mb 62f
11:00am 16 17 mph 1020.8mb 61f
10:00am 18 21 mph 1019.9mb 60f
9:00am 23
mph
1019.3mb 59f
8:00am 25 28 mph 1018.5mb 58f
7:00am 30 32 mph 1017.5mb 58f
6:00am 31 32 mph 1016.5mb 58f
5:00am 25 28 mph 1015.7mb 58f
4:00am 32 34 mph 1014.5mb 58f
3:00am 28 30 mph 1013.7mb 58f
2:00am 26 31 mph 1013.7mb 59f
1:00am 28 29 mph 1013.4mb 59f
12:00am 25 28 mph 1013mb 59f
Thu 05/21 11:00pm 24 28 mph 1012.2mb 58f
10:00pm 37 39 mph 1010.8mb 57f
9:00pm 36 39 mph 1010.2mb 56f
8:00pm 34 38 mph 1009mb 59f
7:00pm 32 34 mph 1007.9mb 60f
6:00pm 2 3 mph 1008.1mb 65f
5:00pm 16 21 mph 1008.1mb 68f
4:00pm 28 30 mph 1007.9mb 67f
3:00pm 28 30 mph 1009.3mb 65f
2:00pm 29 31 mph 1010.2mb 64f
1:00pm 23 25 mph 1011.8mb 64f
12:00pm 24 25 mph 1012.6mb 64f
11:00am 21 22 mph 1013.7mb 64f
10:00am 20 21 mph 1014.4mb 64f
9:00am 13 15 mph 1015.1mb 63f
8:00am 11 13 mph 1015.5mb 63f
7:00am 14
mph
1015.2mb 63f
6:00am 16 18 mph 1014.9mb 62f
5:00am 16 17 mph 1014.6mb 63f
4:00am 14 15 mph 1015.2mb 63f
3:00am 15 17 mph 1015.5mb 62f
2:00am 18 20 mph 1015.6mb 63f
1:00am 15 16 mph 1016.2mb 63f
12:00am 13 14 mph 1016.2mb 64f
Wed 05/20 11:00pm 10 11 mph 1016.3mb 65f
10:00pm 13 14 mph 1015.7mb 66f
9:00pm 14 15 mph 1015.1mb 67f
8:00pm 13 14 mph 1015.1mb 67f
7:00pm 14 16 mph 1014.6mb 67f
6:00pm 10 11 mph 1014.6mb 67f
5:00pm 14 15 mph 1014.5mb 67f
4:00pm 13
mph
1014.5mb 66f
3:00pm 10 11 mph 1014.7mb 66f
2:00pm 11
mph
1014.9mb 66f
1:00pm 15
mph
1015.4mb 65f
12:00pm 17 18 mph 1015.3mb 66f
11:00am 18 20 mph 1015.1mb 66f
10:00am 22 24 mph 1014.3mb 67f
9:00am 24 25 mph 1013.7mb 69f
8:00am 20 21 mph 1013.2mb 70f
7:00am 16 17 mph 1012.7mb 71f
6:00am 15 16 mph 1012.5mb 70f
5:00am 9
mph
1012.1mb 69f